createdAt,value
2022-09-09T00:03:52.197Z,100.00
2022-09-09T00:09:05.706Z,100.00
2022-09-09T00:14:20.036Z,100.00
2022-09-09T00:19:30.584Z,100.00
2022-09-09T00:24:41.319Z,100.00
2022-09-09T00:29:55.443Z,100.00
2022-09-09T00:35:05.296Z,100.00
2022-09-09T00:40:25.503Z,100.00
2022-09-09T00:46:08.911Z,100.00
2022-09-09T00:51:20.708Z,100.00
2022-09-09T00:56:30.354Z,100.00
2022-09-09T01:01:37.191Z,100.00
2022-09-09T01:06:42.277Z,100.00
2022-09-09T01:12:01.943Z,100.00
2022-09-09T01:17:26.989Z,100.00
2022-09-09T01:22:55.615Z,100.00
2022-09-09T01:28:07.788Z,100.00
2022-09-09T01:33:17.690Z,100.00
2022-09-09T01:38:21.463Z,100.00
2022-09-09T01:43:30.988Z,100.00
2022-09-09T01:48:37.079Z,100.00
2022-09-09T01:53:49.651Z,100.00
2022-09-09T01:59:10.464Z,100.00
2022-09-09T02:04:26.376Z,100.00
2022-09-09T02:09:33.139Z,100.00
2022-09-09T02:14:43.349Z,100.00
2022-09-09T02:19:54.696Z,100.00
2022-09-09T02:25:09.621Z,100.00
2022-09-09T02:30:16.274Z,100.00
2022-09-09T02:35:29.863Z,100.00
2022-09-09T02:40:34.300Z,100.00
2022-09-09T02:45:50.965Z,100.00
2022-09-09T02:51:04.238Z,100.00
2022-09-09T02:56:16.191Z,100.00
2022-09-09T03:01:24.472Z,100.00
2022-09-09T03:06:29.453Z,100.00
2022-09-09T03:11:43.532Z,100.00
2022-09-09T03:16:50.344Z,100.00
2022-09-09T03:21:55.001Z,100.00
2022-09-09T03:26:59.279Z,100.00
2022-09-09T03:32:06.239Z,100.00
2022-09-09T03:37:10.505Z,100.00
2022-09-09T03:42:19.999Z,100.00
2022-09-09T03:47:30.608Z,100.00
2022-09-09T03:52:43.810Z,100.00
2022-09-09T03:57:55.090Z,100.00
2022-09-09T04:03:02.602Z,100.00
2022-09-09T04:08:06.864Z,100.00
2022-09-09T04:13:12.996Z,100.00
2022-09-09T04:18:20.715Z,100.00
2022-09-09T04:23:28.527Z,100.00
2022-09-09T04:28:34.917Z,100.00
2022-09-09T04:33:42.378Z,100.00
2022-09-09T04:38:50.102Z,100.00
2022-09-09T04:43:55.204Z,100.00
2022-09-09T04:49:02.355Z,100.00
2022-09-09T04:54:09.835Z,100.00
2022-09-09T04:59:17.223Z,100.00
2022-09-09T05:04:27.242Z,100.00
2022-09-09T05:09:32.205Z,100.00
2022-09-09T05:14:38.801Z,100.00
2022-09-09T05:19:46.960Z,100.00
2022-09-09T05:24:53.028Z,100.00
2022-09-09T05:29:58.892Z,100.00
2022-09-09T05:35:06.163Z,100.00
2022-09-09T05:40:12.449Z,100.00
2022-09-09T05:45:18.696Z,100.00
2022-09-09T05:50:28.632Z,100.00
2022-09-09T05:55:35.729Z,100.00
2022-09-09T06:00:42.197Z,100.00
2022-09-09T06:05:48.036Z,100.00
2022-09-09T06:10:53.787Z,100.00
2022-09-09T06:15:59.894Z,100.00
2022-09-09T06:21:10.623Z,100.00
2022-09-09T06:26:18.581Z,100.00
2022-09-09T06:31:29.746Z,100.00
2022-09-09T06:36:39.895Z,100.00
2022-09-09T06:41:45.947Z,95.29
2022-09-09T06:47:13.560Z,83.28
2022-09-09T06:52:21.506Z,66.45
2022-09-09T06:57:36.787Z,60.46
2022-09-09T07:02:44.174Z,61.21
2022-09-09T07:07:53.877Z,48.47
2022-09-09T07:13:00.042Z,47.37
2022-09-09T07:18:06.770Z,47.00
2022-09-09T07:23:13.005Z,40.25
2022-09-09T07:28:17.916Z,38.87
2022-09-09T07:33:22.568Z,33.52
2022-09-09T07:38:29.264Z,33.75
2022-09-09T07:43:34.560Z,33.62
2022-09-09T07:48:40.580Z,31.51
2022-09-09T07:53:47.461Z,35.50
2022-09-09T07:58:53.368Z,37.44
2022-09-09T08:04:02.514Z,40.53
2022-09-09T08:09:10.552Z,42.47
2022-09-09T08:14:17.375Z,45.97
2022-09-09T08:19:21.874Z,48.80
2022-09-09T08:24:28.106Z,52.89
2022-09-09T08:29:33.058Z,55.14
2022-09-09T08:34:41.246Z,53.91
2022-09-09T08:39:54.403Z,53.93
2022-09-09T08:45:23.106Z,59.13
2022-09-09T08:50:33.899Z,68.37
2022-09-09T08:55:51.532Z,68.81
2022-09-09T09:01:18.553Z,66.24
2022-09-09T09:06:44.721Z,68.30
2022-09-09T09:11:53.104Z,69.47
2022-09-09T09:17:01.452Z,75.87
2022-09-09T09:22:15.753Z,74.13
2022-09-09T09:27:33.401Z,70.64
2022-09-09T09:32:42.658Z,67.93
2022-09-09T09:43:24.615Z,63.71
2022-09-09T09:48:30.599Z,61.90
2022-09-09T09:53:40.251Z,59.95
2022-09-09T09:58:55.631Z,60.43
2022-09-09T10:04:20.016Z,64.00
2022-09-09T10:09:27.692Z,62.68
2022-09-09T10:14:45.493Z,62.60
2022-09-09T10:20:04.658Z,59.40
2022-09-09T10:25:29.510Z,58.55
2022-09-09T10:30:50.061Z,58.83
2022-09-09T10:36:04.553Z,59.64
2022-09-09T10:41:26.027Z,59.16
2022-09-09T10:46:42.940Z,58.85
2022-09-09T10:51:54.677Z,59.00
2022-09-09T10:57:05.715Z,56.88
2022-09-09T11:02:20.776Z,56.68
2022-09-09T11:07:34.808Z,51.47
2022-09-09T11:12:42.214Z,58.87
2022-09-09T11:17:52.535Z,59.39
2022-09-09T11:23:01.842Z,54.26
2022-09-09T11:28:28.418Z,52.28
2022-09-09T11:34:01.314Z,51.40
2022-09-09T11:39:29.854Z,47.59
2022-09-09T11:44:34.536Z,47.67
2022-09-09T11:49:47.230Z,45.58
2022-09-09T11:54:53.219Z,42.62
2022-09-09T11:59:58.602Z,42.72
2022-09-09T12:05:10.152Z,43.68
2022-09-09T12:10:26.811Z,43.99
2022-09-09T12:15:32.635Z,46.54
2022-09-09T12:20:40.194Z,48.32
2022-09-09T12:25:57.770Z,44.97
2022-09-09T12:31:10.699Z,45.84
2022-09-09T12:36:21.303Z,45.13
2022-09-09T12:41:28.155Z,43.44
2022-09-09T12:46:39.126Z,44.60
2022-09-09T12:51:46.282Z,43.24
2022-09-09T12:56:52.774Z,43.23
2022-09-09T13:02:01.399Z,45.19
2022-09-09T13:07:11.201Z,49.78
2022-09-09T13:12:19.383Z,48.70
2022-09-09T13:17:25.682Z,47.37
2022-09-09T13:22:37.498Z,45.72
2022-09-09T13:27:43.947Z,46.57
2022-09-09T13:32:49.135Z,46.98
2022-09-09T13:37:55.755Z,46.82
2022-09-09T13:43:01.248Z,45.90
2022-09-09T13:48:13.362Z,46.00
2022-09-09T13:53:20.510Z,47.06
2022-09-09T13:58:27.392Z,48.85
2022-09-09T14:03:31.762Z,48.85
2022-09-09T14:08:38.660Z,49.81
2022-09-09T14:13:43.288Z,48.72
2022-09-09T14:18:48.716Z,48.88
2022-09-09T14:23:56.242Z,46.14
2022-09-09T14:29:02.098Z,46.92
2022-09-09T14:34:07.691Z,46.92
2022-09-09T14:39:14.036Z,46.00
2022-09-09T14:44:18.670Z,45.58
2022-09-09T14:49:23.254Z,44.58
2022-09-09T14:54:29.464Z,45.39
2022-09-09T14:59:33.914Z,48.48
2022-09-09T15:04:38.914Z,47.18
2022-09-09T15:09:45.301Z,47.88
2022-09-09T15:14:51.920Z,48.20
2022-09-09T15:19:56.660Z,51.20
2022-09-09T15:25:03.191Z,49.52
2022-09-09T15:30:09.456Z,52.26
2022-09-09T15:35:13.643Z,50.89
2022-09-09T15:40:19.549Z,53.15
2022-09-09T15:45:23.869Z,53.35
2022-09-09T15:50:29.750Z,54.53
2022-09-09T15:55:35.831Z,53.86
2022-09-09T16:00:40.776Z,58.54
2022-09-09T16:05:45.675Z,56.63
2022-09-09T16:10:52.190Z,61.13
2022-09-09T16:15:56.981Z,62.91
2022-09-09T16:21:01.557Z,64.24
2022-09-09T16:26:08.562Z,67.68
2022-09-09T16:31:17.741Z,65.65
2022-09-09T16:36:23.837Z,70.71
2022-09-09T16:41:32.524Z,72.11
2022-09-09T16:46:39.626Z,76.16
2022-09-09T16:51:47.295Z,77.35
2022-09-09T16:56:53.864Z,78.72
2022-09-09T17:01:58.167Z,79.99
2022-09-09T17:07:03.245Z,82.52
2022-09-09T17:12:10.791Z,83.39
2022-09-09T17:17:31.270Z,82.59
2022-09-09T17:22:36.841Z,84.45
2022-09-09T17:27:42.588Z,86.74
2022-09-09T17:32:47.783Z,89.51
2022-09-09T17:37:52.314Z,90.10
2022-09-09T17:43:02.787Z,90.40
2022-09-09T17:48:08.405Z,91.55
2022-09-09T17:53:12.643Z,90.24
2022-09-09T17:58:18.522Z,90.44
2022-09-09T18:03:22.804Z,93.54
2022-09-09T18:08:28.005Z,96.62
2022-09-09T18:13:34.889Z,95.04
2022-09-09T18:18:39.803Z,98.49
2022-09-09T18:23:47.370Z,99.15
2022-09-09T18:28:56.088Z,100.00
2022-09-09T18:34:03.220Z,100.00
2022-09-09T18:46:21.743Z,100.00
2022-09-09T18:51:30.023Z,100.00
2022-09-09T18:56:35.282Z,100.00
2022-09-09T19:01:42.692Z,100.00
2022-09-09T19:06:48.759Z,100.00
2022-09-09T19:11:52.996Z,100.00
2022-09-09T19:16:59.575Z,100.00
2022-09-09T19:22:09.338Z,100.00
2022-09-09T19:27:13.261Z,100.00
2022-09-09T19:37:44.824Z,100.00
2022-09-09T19:42:50.324Z,100.00
2022-09-09T19:47:56.337Z,100.00
2022-09-09T19:53:01.018Z,100.00
2022-09-09T19:58:05.912Z,100.00
2022-09-09T20:03:19.250Z,100.00
2022-09-09T20:08:25.668Z,100.00
2022-09-09T20:13:32.071Z,100.00
2022-09-09T20:18:40.419Z,100.00
2022-09-09T20:23:45.648Z,100.00
2022-09-09T20:28:52.067Z,100.00
2022-09-09T20:33:59.263Z,100.00
2022-09-09T20:39:07.521Z,100.00
2022-09-09T20:44:14.814Z,100.00
2022-09-09T20:49:24.699Z,100.00
2022-09-09T20:54:31.439Z,100.00
2022-09-09T20:59:36.133Z,100.00
2022-09-09T21:04:43.018Z,100.00
2022-09-09T21:09:47.165Z,100.00
2022-09-09T21:14:52.086Z,100.00
2022-09-09T21:19:57.765Z,100.00
2022-09-09T21:25:01.994Z,100.00
2022-09-09T21:30:06.893Z,100.00
2022-09-09T21:35:13.612Z,100.00
2022-09-09T21:40:18.559Z,100.00
2022-09-09T21:45:23.642Z,100.00
2022-09-09T21:50:29.857Z,100.00
2022-09-09T21:55:37.440Z,100.00
2022-09-09T22:00:43.164Z,100.00
2022-09-09T22:05:53.727Z,100.00
2022-09-09T22:10:58.281Z,100.00
2022-09-09T22:16:05.086Z,100.00
2022-09-09T22:21:13.021Z,100.00
2022-09-09T22:26:17.362Z,100.00
2022-09-09T22:31:23.202Z,100.00
2022-09-09T22:36:29.948Z,100.00
2022-09-09T22:41:34.445Z,100.00
2022-09-09T22:46:38.902Z,100.00
2022-09-09T22:51:45.830Z,100.00
2022-09-09T22:56:50.547Z,100.00
2022-09-09T23:01:55.276Z,100.00
2022-09-09T23:07:01.194Z,100.00
2022-09-09T23:12:08.679Z,100.00
2022-09-09T23:17:19.363Z,100.00
2022-09-09T23:22:27.449Z,100.00
2022-09-09T23:27:31.950Z,100.00
2022-09-09T23:32:37.636Z,100.00
2022-09-09T23:37:43.427Z,100.00
2022-09-09T23:42:48.633Z,100.00
2022-09-09T23:47:56.219Z,100.00
2022-09-09T23:53:03.667Z,100.00
2022-09-09T23:58:08.836Z,100.00
